< < Back
Terminal Aerodrome Forecast


Current Version              Previous Versions:   1  2  3  4  5  6  7  8  9  

Terminal Aerodrome Forecast

786
FTUS42 KGSP 291724
TAFHKY
TAF
KHKY 291724Z 2918/3018 25006KT P6SM FEW050
     FM292100 25006KT P6SM VCTS BKN060CB
     FM300200 VRB03KT P6SM BKN250
     FM301200 31003KT P6SM SCT250=

Latest METAR

670
SAUS70 KWBC 301100 RRK
MTRHKY
METAR KHKY 301053Z 31003KT M1/4SM FG VV001 22/22 A3000 RMK AO2 SLP133
T02170217


USA.gov is the U.S. government's official web portal to all federal, state and local government web resources and services.